Main page
METAR-TAF:

METAR-TAF

Airports :

Saint-Etienne, France

Saint-Étienne–Bouthéon Airport

latitude: 45-32N, longitude: 004-18E, elevation: 404 m

Current weather observation

The report was made 30 minutes ago, at 07:00 UTC
Wind 10 kt from the South/Southeast
Temperature 4°C
Humidity 75%
Pressure 1015 hPa
Visibility 10 km or more
no clouds below 1500 m and no cumulonimbus

METAR: LFMH 220700Z AUTO 16010KT CAVOK 04/M00 Q1015 NOSIG

Time: 08:30 (07:30 UTC)

Forecast

The report was made 5 hours and 30 minutes ago, at 02:00 UTC
Forecast valid from 22 at 03 UTC to 23 at 03 UTC
Wind 10 kt from the South/Southeast
Visibility 10 km or more
no clouds below 1500 m and no cumulonimbus
Temporary
from 22 at 18 UTC to 23 at 03 UTC
Wind 18 kt from the South with gusts up to 28 kt

TAF: LFMH 220200Z 2203/2303 16010KT CAVOK TEMPO 2218/2303 18018G28KT

Weather observations and forecasts of more than 4000 airports (METAR and TAF reports).

The available stations are represented by yellow and red dots on the map.

Hover mouse over dot to see the name of the station.

Then click to see weather observations and forecasts.

To change the map : click on the green buttons with a black cross to zoom in, on the green button with a dash to zoom out, or on the green arrows for adjacent maps.


METAR-TAF: